sensor_id;sensor_type;location;lat;lon;timestamp;P1;durP1;ratioP1;P2;durP2;ratioP2
51883;SDS011;37915;53.254;6.598;2022-09-16T00:01:12;4.78;;;1.17;;
51883;SDS011;37915;53.254;6.598;2022-09-16T00:03:40;5.47;;;1.20;;
51883;SDS011;37915;53.254;6.598;2022-09-16T00:06:05;5.82;;;1.15;;
51883;SDS011;37915;53.254;6.598;2022-09-16T00:08:37;6.15;;;1.10;;
51883;SDS011;37915;53.254;6.598;2022-09-16T00:11:04;3.92;;;1.60;;
51883;SDS011;37915;53.254;6.598;2022-09-16T00:13:30;5.60;;;1.67;;
51883;SDS011;37915;53.254;6.598;2022-09-16T00:15:55;5.75;;;1.42;;
51883;SDS011;37915;53.254;6.598;2022-09-16T00:18:21;6.40;;;1.40;;
51883;SDS011;37915;53.254;6.598;2022-09-16T00:20:50;4.50;;;1.33;;
51883;SDS011;37915;53.254;6.598;2022-09-16T00:23:17;4.22;;;1.10;;
51883;SDS011;37915;53.254;6.598;2022-09-16T00:25:43;5.82;;;1.20;;
51883;SDS011;37915;53.254;6.598;2022-09-16T00:28:09;4.55;;;1.08;;
51883;SDS011;37915;53.254;6.598;2022-09-16T00:30:34;4.40;;;1.40;;
51883;SDS011;37915;53.254;6.598;2022-09-16T00:33:00;5.85;;;1.25;;
51883;SDS011;37915;53.254;6.598;2022-09-16T00:35:26;3.17;;;1.27;;
51883;SDS011;37915;53.254;6.598;2022-09-16T00:37:51;7.50;;;1.33;;
51883;SDS011;37915;53.254;6.598;2022-09-16T00:40:17;5.70;;;1.17;;
51883;SDS011;37915;53.254;6.598;2022-09-16T00:42:43;4.90;;;1.10;;
51883;SDS011;37915;53.254;6.598;2022-09-16T00:45:16;4.53;;;1.48;;
51883;SDS011;37915;53.254;6.598;2022-09-16T00:47:48;5.68;;;1.13;;
51883;SDS011;37915;53.254;6.598;2022-09-16T00:52:56;2.45;;;1.10;;
51883;SDS011;37915;53.254;6.598;2022-09-16T00:55:25;3.40;;;1.10;;
51883;SDS011;37915;53.254;6.598;2022-09-16T00:57:55;9.35;;;1.25;;
51883;SDS011;37915;53.254;6.598;2022-09-16T01:00:27;6.45;;;1.27;;
51883;SDS011;37915;53.254;6.598;2022-09-16T01:02:52;5.70;;;1.38;;
51883;SDS011;37915;53.254;6.598;2022-09-16T01:05:19;4.35;;;1.60;;
51883;SDS011;37915;53.254;6.598;2022-09-16T01:07:48;5.15;;;1.45;;
51883;SDS011;37915;53.254;6.598;2022-09-16T01:10:17;8.77;;;2.55;;
51883;SDS011;37915;53.254;6.598;2022-09-16T01:12:46;7.40;;;1.20;;
51883;SDS011;37915;53.254;6.598;2022-09-16T01:15:15;4.10;;;1.30;;
51883;SDS011;37915;53.254;6.598;2022-09-16T01:32:01;4.13;;;1.38;;
51883;SDS011;37915;53.254;6.598;2022-09-16T01:34:48;7.03;;;1.60;;
51883;SDS011;37915;53.254;6.598;2022-09-16T01:39:57;6.47;;;1.45;;
51883;SDS011;37915;53.254;6.598;2022-09-16T01:45:24;4.32;;;1.65;;
51883;SDS011;37915;53.254;6.598;2022-09-16T01:53:43;3.33;;;1.17;;
51883;SDS011;37915;53.254;6.598;2022-09-16T01:56:29;4.72;;;1.42;;
51883;SDS011;37915;53.254;6.598;2022-09-16T01:59:01;7.22;;;1.30;;
51883;SDS011;37915;53.254;6.598;2022-09-16T02:01:54;5.53;;;1.35;;
51883;SDS011;37915;53.254;6.598;2022-09-16T02:04:28;4.00;;;1.48;;
51883;SDS011;37915;53.254;6.598;2022-09-16T02:06:59;4.10;;;1.10;;
51883;SDS011;37915;53.254;6.598;2022-09-16T02:09:29;6.43;;;1.33;;
51883;SDS011;37915;53.254;6.598;2022-09-16T02:12:00;6.10;;;1.35;;
51883;SDS011;37915;53.254;6.598;2022-09-16T02:14:32;3.70;;;1.20;;
51883;SDS011;37915;53.254;6.598;2022-09-16T02:17:04;4.97;;;1.38;;
51883;SDS011;37915;53.254;6.598;2022-09-16T02:19:38;8.05;;;1.88;;
51883;SDS011;37915;53.254;6.598;2022-09-16T02:22:21;5.45;;;1.30;;
51883;SDS011;37915;53.254;6.598;2022-09-16T02:24:52;7.18;;;1.42;;
51883;SDS011;37915;53.254;6.598;2022-09-16T02:27:18;5.80;;;1.63;;
51883;SDS011;37915;53.254;6.598;2022-09-16T02:29:54;7.18;;;1.23;;
51883;SDS011;37915;53.254;6.598;2022-09-16T02:32:24;6.35;;;1.80;;
51883;SDS011;37915;53.254;6.598;2022-09-16T02:34:53;6.85;;;1.45;;
51883;SDS011;37915;53.254;6.598;2022-09-16T02:37:22;4.35;;;1.25;;
51883;SDS011;37915;53.254;6.598;2022-09-16T02:39:53;2.85;;;1.13;;
51883;SDS011;37915;53.254;6.598;2022-09-16T02:42:22;7.75;;;1.33;;
51883;SDS011;37915;53.254;6.598;2022-09-16T02:44:47;6.50;;;1.30;;
51883;SDS011;37915;53.254;6.598;2022-09-16T02:49:55;3.30;;;1.40;;
51883;SDS011;37915;53.254;6.598;2022-09-16T02:57:48;5.13;;;1.42;;
51883;SDS011;37915;53.254;6.598;2022-09-16T03:00:14;5.35;;;1.30;;
51883;SDS011;37915;53.254;6.598;2022-09-16T03:02:40;7.75;;;1.30;;
51883;SDS011;37915;53.254;6.598;2022-09-16T03:05:05;6.13;;;1.40;;
51883;SDS011;37915;53.254;6.598;2022-09-16T03:07:33;6.82;;;1.38;;
51883;SDS011;37915;53.254;6.598;2022-09-16T03:10:00;6.07;;;1.38;;
51883;SDS011;37915;53.254;6.598;2022-09-16T03:20:22;7.10;;;1.23;;
51883;SDS011;37915;53.254;6.598;2022-09-16T03:28:46;7.13;;;1.30;;
51883;SDS011;37915;53.254;6.598;2022-09-16T03:34:45;13.05;;;2.05;;
51883;SDS011;37915;53.254;6.598;2022-09-16T03:37:08;7.38;;;1.80;;
51883;SDS011;37915;53.254;6.598;2022-09-16T03:39:37;9.65;;;1.42;;
51883;SDS011;37915;53.254;6.598;2022-09-16T03:42:04;8.68;;;1.58;;
51883;SDS011;37915;53.254;6.598;2022-09-16T03:44:32;5.35;;;1.48;;
51883;SDS011;37915;53.254;6.598;2022-09-16T03:47:00;10.05;;;2.05;;
51883;SDS011;37915;53.254;6.598;2022-09-16T03:49:29;9.02;;;1.45;;
51883;SDS011;37915;53.254;6.598;2022-09-16T03:51:55;7.63;;;1.80;;
51883;SDS011;37915;53.254;6.598;2022-09-16T03:54:21;5.28;;;1.50;;
51883;SDS011;37915;53.254;6.598;2022-09-16T03:56:47;6.28;;;2.22;;
51883;SDS011;37915;53.254;6.598;2022-09-16T03:59:13;8.30;;;1.88;;
51883;SDS011;37915;53.254;6.598;2022-09-16T04:01:38;5.80;;;1.73;;
51883;SDS011;37915;53.254;6.598;2022-09-16T04:04:04;7.72;;;1.63;;
51883;SDS011;37915;53.254;6.598;2022-09-16T04:06:30;9.30;;;1.92;;
51883;SDS011;37915;53.254;6.598;2022-09-16T04:08:55;6.60;;;1.50;;
51883;SDS011;37915;53.254;6.598;2022-09-16T04:11:23;10.05;;;1.65;;
51883;SDS011;37915;53.254;6.598;2022-09-16T04:13:48;7.78;;;1.55;;
51883;SDS011;37915;53.254;6.598;2022-09-16T04:16:17;7.20;;;1.45;;
51883;SDS011;37915;53.254;6.598;2022-09-16T04:18:45;8.93;;;1.33;;
51883;SDS011;37915;53.254;6.598;2022-09-16T04:21:11;6.05;;;1.52;;
51883;SDS011;37915;53.254;6.598;2022-09-16T04:23:37;8.00;;;1.70;;
51883;SDS011;37915;53.254;6.598;2022-09-16T04:26:03;8.48;;;1.83;;
51883;SDS011;37915;53.254;6.598;2022-09-16T04:28:29;11.02;;;1.65;;
51883;SDS011;37915;53.254;6.598;2022-09-16T04:30:59;5.88;;;1.60;;
51883;SDS011;37915;53.254;6.598;2022-09-16T04:33:30;8.70;;;2.95;;
51883;SDS011;37915;53.254;6.598;2022-09-16T04:36:01;7.85;;;1.83;;
51883;SDS011;37915;53.254;6.598;2022-09-16T04:38:31;12.00;;;2.55;;
51883;SDS011;37915;53.254;6.598;2022-09-16T04:41:04;4.43;;;1.50;;
51883;SDS011;37915;53.254;6.598;2022-09-16T04:43:31;6.57;;;1.42;;
51883;SDS011;37915;53.254;6.598;2022-09-16T04:45:58;9.35;;;1.88;;
51883;SDS011;37915;53.254;6.598;2022-09-16T04:48:24;9.35;;;2.08;;
51883;SDS011;37915;53.254;6.598;2022-09-16T04:50:50;6.20;;;1.80;;
51883;SDS011;37915;53.254;6.598;2022-09-16T04:53:17;8.50;;;2.05;;
51883;SDS011;37915;53.254;6.598;2022-09-16T04:55:44;11.88;;;1.52;;
51883;SDS011;37915;53.254;6.598;2022-09-16T04:58:10;5.72;;;1.77;;
51883;SDS011;37915;53.254;6.598;2022-09-16T05:00:37;10.38;;;2.28;;
51883;SDS011;37915;53.254;6.598;2022-09-16T05:03:03;9.55;;;1.38;;
51883;SDS011;37915;53.254;6.598;2022-09-16T05:05:28;7.25;;;2.08;;
51883;SDS011;37915;53.254;6.598;2022-09-16T05:07:54;12.30;;;1.95;;
51883;SDS011;37915;53.254;6.598;2022-09-16T05:10:20;8.45;;;1.67;;
51883;SDS011;37915;53.254;6.598;2022-09-16T05:12:52;4.07;;;1.20;;
51883;SDS011;37915;53.254;6.598;2022-09-16T05:15:18;8.27;;;1.60;;
51883;SDS011;37915;53.254;6.598;2022-09-16T05:17:44;6.13;;;1.67;;
51883;SDS011;37915;53.254;6.598;2022-09-16T05:20:10;10.93;;;1.90;;
51883;SDS011;37915;53.254;6.598;2022-09-16T05:22:36;8.45;;;2.30;;
51883;SDS011;37915;53.254;6.598;2022-09-16T05:25:03;8.57;;;1.65;;
51883;SDS011;37915;53.254;6.598;2022-09-16T05:27:29;11.55;;;2.20;;
51883;SDS011;37915;53.254;6.598;2022-09-16T05:29:56;16.23;;;1.98;;
51883;SDS011;37915;53.254;6.598;2022-09-16T05:32:21;8.20;;;1.90;;
51883;SDS011;37915;53.254;6.598;2022-09-16T05:34:47;8.68;;;1.90;;
51883;SDS011;37915;53.254;6.598;2022-09-16T05:37:14;7.03;;;1.40;;
51883;SDS011;37915;53.254;6.598;2022-09-16T05:39:43;9.43;;;1.73;;
51883;SDS011;37915;53.254;6.598;2022-09-16T05:42:09;8.45;;;1.52;;
51883;SDS011;37915;53.254;6.598;2022-09-16T05:44:34;5.43;;;1.33;;
51883;SDS011;37915;53.254;6.598;2022-09-16T05:47:00;7.50;;;1.83;;
51883;SDS011;37915;53.254;6.598;2022-09-16T05:49:26;7.35;;;1.90;;
51883;SDS011;37915;53.254;6.598;2022-09-16T05:51:52;10.35;;;1.90;;
51883;SDS011;37915;53.254;6.598;2022-09-16T05:54:19;8.05;;;1.55;;
51883;SDS011;37915;53.254;6.598;2022-09-16T05:56:47;8.45;;;2.17;;
51883;SDS011;37915;53.254;6.598;2022-09-16T05:59:13;8.68;;;2.00;;
51883;SDS011;37915;53.254;6.598;2022-09-16T06:01:40;9.02;;;1.42;;
51883;SDS011;37915;53.254;6.598;2022-09-16T06:04:06;7.85;;;1.65;;
51883;SDS011;37915;53.254;6.598;2022-09-16T06:06:36;6.05;;;1.38;;
51883;SDS011;37915;53.254;6.598;2022-09-16T06:09:12;8.88;;;1.92;;
51883;SDS011;37915;53.254;6.598;2022-09-16T06:11:40;5.50;;;1.42;;
51883;SDS011;37915;53.254;6.598;2022-09-16T06:14:07;11.73;;;2.45;;
51883;SDS011;37915;53.254;6.598;2022-09-16T06:16:34;11.30;;;2.10;;
51883;SDS011;37915;53.254;6.598;2022-09-16T06:19:01;8.50;;;1.80;;
51883;SDS011;37915;53.254;6.598;2022-09-16T06:21:29;6.20;;;1.67;;
51883;SDS011;37915;53.254;6.598;2022-09-16T06:23:55;7.85;;;1.85;;
51883;SDS011;37915;53.254;6.598;2022-09-16T06:26:22;8.23;;;1.80;;
51883;SDS011;37915;53.254;6.598;2022-09-16T06:28:49;10.27;;;1.88;;
51883;SDS011;37915;53.254;6.598;2022-09-16T06:31:20;6.63;;;1.92;;
51883;SDS011;37915;53.254;6.598;2022-09-16T06:33:48;5.38;;;1.30;;
51883;SDS011;37915;53.254;6.598;2022-09-16T06:36:21;12.10;;;1.70;;
51883;SDS011;37915;53.254;6.598;2022-09-16T06:38:48;13.75;;;1.95;;
51883;SDS011;37915;53.254;6.598;2022-09-16T06:41:15;11.07;;;2.08;;
51883;SDS011;37915;53.254;6.598;2022-09-16T06:43:43;8.95;;;3.05;;
51883;SDS011;37915;53.254;6.598;2022-09-16T06:46:10;47.33;;;4.30;;
51883;SDS011;37915;53.254;6.598;2022-09-16T06:48:40;9.68;;;2.35;;
51883;SDS011;37915;53.254;6.598;2022-09-16T06:51:09;13.98;;;2.15;;
51883;SDS011;37915;53.254;6.598;2022-09-16T06:53:36;7.63;;;1.55;;
51883;SDS011;37915;53.254;6.598;2022-09-16T06:56:04;9.27;;;1.80;;
51883;SDS011;37915;53.254;6.598;2022-09-16T06:58:32;11.80;;;2.83;;
51883;SDS011;37915;53.254;6.598;2022-09-16T07:01:04;11.10;;;2.50;;
51883;SDS011;37915;53.254;6.598;2022-09-16T07:03:30;11.05;;;2.22;;
51883;SDS011;37915;53.254;6.598;2022-09-16T07:05:59;9.15;;;1.90;;
51883;SDS011;37915;53.254;6.598;2022-09-16T07:08:29;8.85;;;1.95;;
51883;SDS011;37915;53.254;6.598;2022-09-16T07:11:00;10.27;;;2.25;;
51883;SDS011;37915;53.254;6.598;2022-09-16T07:13:31;7.45;;;2.03;;
51883;SDS011;37915;53.254;6.598;2022-09-16T07:16:05;7.25;;;1.55;;
51883;SDS011;37915;53.254;6.598;2022-09-16T07:18:32;8.60;;;1.50;;
51883;SDS011;37915;53.254;6.598;2022-09-16T07:23:43;12.80;;;3.00;;
51883;SDS011;37915;53.254;6.598;2022-09-16T07:26:13;7.95;;;1.55;;
51883;SDS011;37915;53.254;6.598;2022-09-16T07:28:44;7.03;;;1.98;;
51883;SDS011;37915;53.254;6.598;2022-09-16T07:31:13;10.57;;;2.05;;
51883;SDS011;37915;53.254;6.598;2022-09-16T07:33:44;6.90;;;2.15;;
51883;SDS011;37915;53.254;6.598;2022-09-16T07:36:12;7.28;;;2.45;;
51883;SDS011;37915;53.254;6.598;2022-09-16T07:38:39;7.82;;;1.75;;
51883;SDS011;37915;53.254;6.598;2022-09-16T07:41:06;10.40;;;2.00;;
51883;SDS011;37915;53.254;6.598;2022-09-16T07:43:35;6.40;;;1.85;;
51883;SDS011;37915;53.254;6.598;2022-09-16T07:46:02;7.65;;;1.83;;
51883;SDS011;37915;53.254;6.598;2022-09-16T07:48:28;8.02;;;2.05;;
51883;SDS011;37915;53.254;6.598;2022-09-16T07:50:59;6.97;;;1.63;;
51883;SDS011;37915;53.254;6.598;2022-09-16T07:53:27;12.40;;;2.38;;
51883;SDS011;37915;53.254;6.598;2022-09-16T07:56:01;6.50;;;1.65;;
51883;SDS011;37915;53.254;6.598;2022-09-16T07:58:28;12.63;;;2.58;;
51883;SDS011;37915;53.254;6.598;2022-09-16T08:00:54;10.15;;;1.92;;
51883;SDS011;37915;53.254;6.598;2022-09-16T08:03:19;13.63;;;2.40;;
51883;SDS011;37915;53.254;6.598;2022-09-16T08:05:45;8.35;;;2.45;;
51883;SDS011;37915;53.254;6.598;2022-09-16T08:08:11;11.77;;;2.10;;
51883;SDS011;37915;53.254;6.598;2022-09-16T08:10:37;10.20;;;1.90;;
51883;SDS011;37915;53.254;6.598;2022-09-16T08:13:03;10.15;;;2.40;;
51883;SDS011;37915;53.254;6.598;2022-09-16T08:15:29;7.38;;;2.92;;
51883;SDS011;37915;53.254;6.598;2022-09-16T08:17:55;11.45;;;2.40;;
51883;SDS011;37915;53.254;6.598;2022-09-16T08:20:21;7.28;;;2.10;;
51883;SDS011;37915;53.254;6.598;2022-09-16T08:22:48;10.73;;;1.95;;
51883;SDS011;37915;53.254;6.598;2022-09-16T08:25:13;9.13;;;2.88;;
51883;SDS011;37915;53.254;6.598;2022-09-16T08:27:39;11.25;;;2.33;;
51883;SDS011;37915;53.254;6.598;2022-09-16T08:30:05;8.45;;;1.80;;
51883;SDS011;37915;53.254;6.598;2022-09-16T08:32:31;9.30;;;1.52;;
51883;SDS011;37915;53.254;6.598;2022-09-16T08:34:57;8.77;;;2.03;;
51883;SDS011;37915;53.254;6.598;2022-09-16T08:37:22;9.88;;;2.03;;
51883;SDS011;37915;53.254;6.598;2022-09-16T08:39:48;6.97;;;1.63;;
51883;SDS011;37915;53.254;6.598;2022-09-16T08:42:28;8.55;;;1.67;;
51883;SDS011;37915;53.254;6.598;2022-09-16T08:50:52;5.50;;;1.63;;
51883;SDS011;37915;53.254;6.598;2022-09-16T08:53:27;7.28;;;1.70;;
51883;SDS011;37915;53.254;6.598;2022-09-16T08:56:06;7.70;;;1.48;;
51883;SDS011;37915;53.254;6.598;2022-09-16T08:58:38;9.90;;;2.30;;
51883;SDS011;37915;53.254;6.598;2022-09-16T09:01:51;9.73;;;1.98;;
51883;SDS011;37915;53.254;6.598;2022-09-16T09:04:08;12.30;;;2.17;;
51883;SDS011;37915;53.254;6.598;2022-09-16T09:20:33;9.68;;;2.00;;
51883;SDS011;37915;53.254;6.598;2022-09-16T09:23:32;5.82;;;1.60;;
51883;SDS011;37915;53.254;6.598;2022-09-16T09:26:19;7.28;;;1.70;;
51883;SDS011;37915;53.254;6.598;2022-09-16T09:31:41;4.35;;;1.25;;
51883;SDS011;37915;53.254;6.598;2022-09-16T09:37:22;5.07;;;1.20;;
51883;SDS011;37915;53.254;6.598;2022-09-16T09:42:50;6.10;;;1.65;;
51883;SDS011;37915;53.254;6.598;2022-09-16T09:45:32;6.18;;;1.70;;
51883;SDS011;37915;53.254;6.598;2022-09-16T09:50:48;4.30;;;0.88;;
51883;SDS011;37915;53.254;6.598;2022-09-16T09:58:40;6.65;;;1.67;;
51883;SDS011;37915;53.254;6.598;2022-09-16T10:01:12;6.57;;;1.50;;
51883;SDS011;37915;53.254;6.598;2022-09-16T10:03:40;6.75;;;1.98;;
51883;SDS011;37915;53.254;6.598;2022-09-16T10:06:06;7.25;;;2.10;;
51883;SDS011;37915;53.254;6.598;2022-09-16T10:08:41;6.15;;;1.58;;
51883;SDS011;37915;53.254;6.598;2022-09-16T10:13:57;6.85;;;1.98;;
51883;SDS011;37915;53.254;6.598;2022-09-16T10:16:32;5.45;;;1.52;;
51883;SDS011;37915;53.254;6.598;2022-09-16T10:19:03;10.77;;;1.60;;
51883;SDS011;37915;53.254;6.598;2022-09-16T10:21:41;9.45;;;1.95;;
51883;SDS011;37915;53.254;6.598;2022-09-16T10:24:52;6.53;;;1.55;;
51883;SDS011;37915;53.254;6.598;2022-09-16T10:27:28;5.43;;;1.73;;
51883;SDS011;37915;53.254;6.598;2022-09-16T10:30:14;6.53;;;1.48;;
51883;SDS011;37915;53.254;6.598;2022-09-16T10:35:21;5.72;;;1.33;;
51883;SDS011;37915;53.254;6.598;2022-09-16T10:37:50;10.13;;;1.80;;
51883;SDS011;37915;53.254;6.598;2022-09-16T10:40:21;7.55;;;1.95;;
51883;SDS011;37915;53.254;6.598;2022-09-16T10:42:49;6.53;;;2.05;;
51883;SDS011;37915;53.254;6.598;2022-09-16T10:45:20;6.10;;;2.03;;
51883;SDS011;37915;53.254;6.598;2022-09-16T10:48:14;6.70;;;2.05;;
51883;SDS011;37915;53.254;6.598;2022-09-16T10:50:52;7.55;;;2.00;;
51883;SDS011;37915;53.254;6.598;2022-09-16T10:56:03;5.70;;;1.50;;
51883;SDS011;37915;53.254;6.598;2022-09-16T10:58:31;10.35;;;2.63;;
51883;SDS011;37915;53.254;6.598;2022-09-16T11:06:54;16.35;;;2.25;;
51883;SDS011;37915;53.254;6.598;2022-09-16T11:48:19;10.77;;;2.70;;
51883;SDS011;37915;53.254;6.598;2022-09-16T11:51:28;9.18;;;2.60;;
51883;SDS011;37915;53.254;6.598;2022-09-16T11:54:24;11.60;;;3.05;;
51883;SDS011;37915;53.254;6.598;2022-09-16T11:57:09;12.73;;;3.28;;
51883;SDS011;37915;53.254;6.598;2022-09-16T12:05:00;10.90;;;2.40;;
51883;SDS011;37915;53.254;6.598;2022-09-16T12:07:38;8.55;;;1.83;;
51883;SDS011;37915;53.254;6.598;2022-09-16T12:10:07;13.50;;;3.08;;
51883;SDS011;37915;53.254;6.598;2022-09-16T12:12:45;9.48;;;3.28;;
51883;SDS011;37915;53.254;6.598;2022-09-16T12:15:24;10.45;;;2.30;;
51883;SDS011;37915;53.254;6.598;2022-09-16T12:18:21;8.85;;;2.50;;
51883;SDS011;37915;53.254;6.598;2022-09-16T12:23:50;8.90;;;2.38;;
51883;SDS011;37915;53.254;6.598;2022-09-16T12:26:32;11.05;;;2.28;;
51883;SDS011;37915;53.254;6.598;2022-09-16T12:29:17;14.77;;;3.45;;
51883;SDS011;37915;53.254;6.598;2022-09-16T12:31:52;11.32;;;2.45;;
51883;SDS011;37915;53.254;6.598;2022-09-16T12:34:25;13.75;;;3.38;;
51883;SDS011;37915;53.254;6.598;2022-09-16T12:37:34;13.05;;;2.60;;
51883;SDS011;37915;53.254;6.598;2022-09-16T12:40:29;12.73;;;2.47;;
51883;SDS011;37915;53.254;6.598;2022-09-16T12:48:31;8.38;;;2.15;;
51883;SDS011;37915;53.254;6.598;2022-09-16T12:51:42;11.73;;;2.55;;
51883;SDS011;37915;53.254;6.598;2022-09-16T13:00:03;9.35;;;1.45;;
51883;SDS011;37915;53.254;6.598;2022-09-16T13:02:36;5.43;;;1.50;;
51883;SDS011;37915;53.254;6.598;2022-09-16T13:05:30;7.72;;;1.60;;
51883;SDS011;37915;53.254;6.598;2022-09-16T13:08:02;6.50;;;1.35;;
51883;SDS011;37915;53.254;6.598;2022-09-16T13:10:36;7.40;;;2.03;;
51883;SDS011;37915;53.254;6.598;2022-09-16T13:13:03;7.55;;;2.03;;
51883;SDS011;37915;53.254;6.598;2022-09-16T13:15:31;6.15;;;1.48;;
51883;SDS011;37915;53.254;6.598;2022-09-16T13:18:09;6.43;;;1.85;;
51883;SDS011;37915;53.254;6.598;2022-09-16T13:20:51;5.43;;;1.52;;
51883;SDS011;37915;53.254;6.598;2022-09-16T13:23:23;7.07;;;1.75;;
51883;SDS011;37915;53.254;6.598;2022-09-16T13:25:57;5.78;;;1.73;;
51883;SDS011;37915;53.254;6.598;2022-09-16T13:33:40;5.68;;;1.85;;
51883;SDS011;37915;53.254;6.598;2022-09-16T13:41:13;6.95;;;1.70;;
51883;SDS011;37915;53.254;6.598;2022-09-16T13:44:00;2.92;;;1.40;;
51883;SDS011;37915;53.254;6.598;2022-09-16T13:46:46;5.82;;;1.98;;
51883;SDS011;37915;53.254;6.598;2022-09-16T13:49:17;7.82;;;1.73;;
51883;SDS011;37915;53.254;6.598;2022-09-16T13:51:46;5.68;;;1.90;;
51883;SDS011;37915;53.254;6.598;2022-09-16T13:54:40;7.18;;;1.77;;
51883;SDS011;37915;53.254;6.598;2022-09-16T13:57:27;9.55;;;2.00;;
51883;SDS011;37915;53.254;6.598;2022-09-16T14:11:01;10.00;;;1.95;;
51883;SDS011;37915;53.254;6.598;2022-09-16T14:13:52;6.10;;;2.00;;
51883;SDS011;37915;53.254;6.598;2022-09-16T14:16:27;12.10;;;2.38;;
51883;SDS011;37915;53.254;6.598;2022-09-16T14:21:23;7.68;;;1.70;;
51883;SDS011;37915;53.254;6.598;2022-09-16T14:23:49;6.60;;;1.77;;
51883;SDS011;37915;53.254;6.598;2022-09-16T14:26:16;7.43;;;1.83;;
51883;SDS011;37915;53.254;6.598;2022-09-16T14:28:47;9.52;;;2.03;;
51883;SDS011;37915;53.254;6.598;2022-09-16T14:31:20;6.30;;;1.70;;
51883;SDS011;37915;53.254;6.598;2022-09-16T14:33:53;7.38;;;1.90;;
51883;SDS011;37915;53.254;6.598;2022-09-16T14:36:36;7.95;;;2.60;;
51883;SDS011;37915;53.254;6.598;2022-09-16T14:41:38;9.05;;;2.42;;
51883;SDS011;37915;53.254;6.598;2022-09-16T14:47:01;5.22;;;1.50;;
51883;SDS011;37915;53.254;6.598;2022-09-16T14:49:31;5.63;;;1.50;;
51883;SDS011;37915;53.254;6.598;2022-09-16T14:52:01;8.27;;;1.60;;
51883;SDS011;37915;53.254;6.598;2022-09-16T14:54:27;7.13;;;1.85;;
51883;SDS011;37915;53.254;6.598;2022-09-16T14:56:57;8.05;;;1.98;;
51883;SDS011;37915;53.254;6.598;2022-09-16T14:59:34;6.20;;;1.90;;
51883;SDS011;37915;53.254;6.598;2022-09-16T15:02:06;6.57;;;1.58;;
51883;SDS011;37915;53.254;6.598;2022-09-16T15:04:36;10.05;;;1.63;;
51883;SDS011;37915;53.254;6.598;2022-09-16T15:07:08;8.70;;;1.63;;
51883;SDS011;37915;53.254;6.598;2022-09-16T15:12:31;7.53;;;1.80;;
51883;SDS011;37915;53.254;6.598;2022-09-16T15:15:03;7.65;;;2.35;;
51883;SDS011;37915;53.254;6.598;2022-09-16T15:17:30;10.48;;;2.45;;
51883;SDS011;37915;53.254;6.598;2022-09-16T15:19:57;10.07;;;3.00;;
51883;SDS011;37915;53.254;6.598;2022-09-16T15:22:24;9.30;;;2.47;;
51883;SDS011;37915;53.254;6.598;2022-09-16T15:24:54;9.43;;;2.30;;
51883;SDS011;37915;53.254;6.598;2022-09-16T15:27:29;8.77;;;2.13;;
51883;SDS011;37915;53.254;6.598;2022-09-16T15:30:00;10.30;;;2.28;;
51883;SDS011;37915;53.254;6.598;2022-09-16T15:32:29;13.23;;;2.53;;
51883;SDS011;37915;53.254;6.598;2022-09-16T15:35:01;10.68;;;2.22;;
51883;SDS011;37915;53.254;6.598;2022-09-16T15:37:47;16.85;;;3.10;;
51883;SDS011;37915;53.254;6.598;2022-09-16T15:45:36;8.48;;;2.80;;
51883;SDS011;37915;53.254;6.598;2022-09-16T15:48:10;11.98;;;2.35;;
51883;SDS011;37915;53.254;6.598;2022-09-16T15:50:47;10.13;;;1.83;;
51883;SDS011;37915;53.254;6.598;2022-09-16T15:53:36;16.77;;;2.72;;
51883;SDS011;37915;53.254;6.598;2022-09-16T15:58:47;13.75;;;3.00;;
51883;SDS011;37915;53.254;6.598;2022-09-16T16:01:35;13.63;;;2.35;;
51883;SDS011;37915;53.254;6.598;2022-09-16T16:04:11;9.10;;;2.03;;
51883;SDS011;37915;53.254;6.598;2022-09-16T16:11:51;13.90;;;3.35;;
51883;SDS011;37915;53.254;6.598;2022-09-16T16:14:17;9.40;;;2.33;;
51883;SDS011;37915;53.254;6.598;2022-09-16T16:16:43;9.15;;;2.47;;
51883;SDS011;37915;53.254;6.598;2022-09-16T16:19:08;12.43;;;2.40;;
51883;SDS011;37915;53.254;6.598;2022-09-16T16:21:37;12.70;;;3.55;;
51883;SDS011;37915;53.254;6.598;2022-09-16T16:24:13;6.43;;;2.47;;
51883;SDS011;37915;53.254;6.598;2022-09-16T16:26:40;12.05;;;2.45;;
51883;SDS011;37915;53.254;6.598;2022-09-16T16:29:06;13.35;;;2.47;;
51883;SDS011;37915;53.254;6.598;2022-09-16T16:31:32;10.25;;;2.78;;
51883;SDS011;37915;53.254;6.598;2022-09-16T16:33:58;12.63;;;2.40;;
51883;SDS011;37915;53.254;6.598;2022-09-16T16:36:24;9.85;;;2.78;;
51883;SDS011;37915;53.254;6.598;2022-09-16T16:38:50;14.68;;;3.20;;
51883;SDS011;37915;53.254;6.598;2022-09-16T16:41:19;10.65;;;1.95;;
51883;SDS011;37915;53.254;6.598;2022-09-16T16:43:46;17.20;;;2.33;;
51883;SDS011;37915;53.254;6.598;2022-09-16T16:46:12;13.30;;;2.58;;
51883;SDS011;37915;53.254;6.598;2022-09-16T16:48:38;10.57;;;2.25;;
51883;SDS011;37915;53.254;6.598;2022-09-16T16:51:05;11.82;;;2.40;;
51883;SDS011;37915;53.254;6.598;2022-09-16T16:53:32;13.93;;;2.67;;
51883;SDS011;37915;53.254;6.598;2022-09-16T16:56:08;11.23;;;2.60;;
51883;SDS011;37915;53.254;6.598;2022-09-16T16:58:36;7.30;;;2.15;;
51883;SDS011;37915;53.254;6.598;2022-09-16T17:01:17;9.60;;;2.13;;
51883;SDS011;37915;53.254;6.598;2022-09-16T17:03:44;9.75;;;1.85;;
51883;SDS011;37915;53.254;6.598;2022-09-16T17:06:13;10.38;;;2.58;;
51883;SDS011;37915;53.254;6.598;2022-09-16T17:08:38;12.25;;;3.08;;
51883;SDS011;37915;53.254;6.598;2022-09-16T17:11:11;9.57;;;2.35;;
51883;SDS011;37915;53.254;6.598;2022-09-16T17:13:42;13.40;;;2.25;;
51883;SDS011;37915;53.254;6.598;2022-09-16T17:16:10;9.40;;;1.73;;
51883;SDS011;37915;53.254;6.598;2022-09-16T17:18:37;9.43;;;1.95;;
51883;SDS011;37915;53.254;6.598;2022-09-16T17:21:09;11.05;;;1.85;;
51883;SDS011;37915;53.254;6.598;2022-09-16T17:23:36;9.45;;;2.00;;
51883;SDS011;37915;53.254;6.598;2022-09-16T17:26:04;13.90;;;2.80;;
51883;SDS011;37915;53.254;6.598;2022-09-16T17:28:30;6.60;;;2.00;;
51883;SDS011;37915;53.254;6.598;2022-09-16T17:30:57;13.15;;;3.65;;
51883;SDS011;37915;53.254;6.598;2022-09-16T17:33:22;14.15;;;2.72;;
51883;SDS011;37915;53.254;6.598;2022-09-16T17:36:04;8.63;;;2.30;;
51883;SDS011;37915;53.254;6.598;2022-09-16T17:38:31;12.65;;;3.53;;
51883;SDS011;37915;53.254;6.598;2022-09-16T17:41:02;17.42;;;3.85;;
51883;SDS011;37915;53.254;6.598;2022-09-16T17:43:30;12.05;;;2.30;;
51883;SDS011;37915;53.254;6.598;2022-09-16T17:45:57;14.63;;;3.08;;
51883;SDS011;37915;53.254;6.598;2022-09-16T17:48:23;11.10;;;2.90;;
51883;SDS011;37915;53.254;6.598;2022-09-16T17:50:52;10.38;;;2.33;;
51883;SDS011;37915;53.254;6.598;2022-09-16T17:53:18;11.48;;;2.60;;
51883;SDS011;37915;53.254;6.598;2022-09-16T17:55:44;8.25;;;2.53;;
51883;SDS011;37915;53.254;6.598;2022-09-16T17:58:11;8.55;;;1.90;;
51883;SDS011;37915;53.254;6.598;2022-09-16T18:00:37;7.28;;;1.77;;
51883;SDS011;37915;53.254;6.598;2022-09-16T18:03:03;10.50;;;3.08;;
51883;SDS011;37915;53.254;6.598;2022-09-16T18:05:34;13.18;;;2.38;;
51883;SDS011;37915;53.254;6.598;2022-09-16T18:08:01;10.55;;;2.40;;
51883;SDS011;37915;53.254;6.598;2022-09-16T18:10:28;9.95;;;2.38;;
51883;SDS011;37915;53.254;6.598;2022-09-16T18:12:54;9.68;;;2.20;;
51883;SDS011;37915;53.254;6.598;2022-09-16T18:15:22;15.93;;;2.45;;
51883;SDS011;37915;53.254;6.598;2022-09-16T18:17:48;10.35;;;2.58;;
51883;SDS011;37915;53.254;6.598;2022-09-16T18:20:15;12.00;;;3.08;;
51883;SDS011;37915;53.254;6.598;2022-09-16T18:22:41;16.58;;;3.22;;
51883;SDS011;37915;53.254;6.598;2022-09-16T18:25:07;15.77;;;2.67;;
51883;SDS011;37915;53.254;6.598;2022-09-16T18:27:33;12.85;;;2.47;;
51883;SDS011;37915;53.254;6.598;2022-09-16T18:29:59;12.98;;;3.03;;
51883;SDS011;37915;53.254;6.598;2022-09-16T18:32:24;11.18;;;2.22;;
51883;SDS011;37915;53.254;6.598;2022-09-16T18:34:50;12.90;;;2.55;;